sensor_id;sensor_type;location;lat;lon;timestamp;pressure;altitude;pressure_sealevel;temperature;humidity
7180;BME280;3631;42.152;24.756;2023-01-29T00:01:35;99528.19;;;4.72;98.84
7180;BME280;3631;42.152;24.756;2023-01-29T00:04:04;99526.38;;;4.87;97.78
7180;BME280;3631;42.152;24.756;2023-01-29T00:06:31;99528.06;;;4.92;97.83
7180;BME280;3631;42.152;24.756;2023-01-29T00:08:58;99531.50;;;4.93;97.69
7180;BME280;3631;42.152;24.756;2023-01-29T00:11:25;99530.56;;;5.01;97.29
7180;BME280;3631;42.152;24.756;2023-01-29T00:13:52;99527.13;;;5.02;97.25
7180;BME280;3631;42.152;24.756;2023-01-29T00:16:19;99539.94;;;5.11;97.27
7180;BME280;3631;42.152;24.756;2023-01-29T00:18:46;99534.00;;;5.03;96.36
7180;BME280;3631;42.152;24.756;2023-01-29T00:21:15;99540.00;;;5.01;96.39
7180;BME280;3631;42.152;24.756;2023-01-29T00:23:43;99543.44;;;5.03;96.79
7180;BME280;3631;42.152;24.756;2023-01-29T00:26:11;99547.69;;;5.07;96.76
7180;BME280;3631;42.152;24.756;2023-01-29T00:28:38;99546.00;;;5.04;96.19
7180;BME280;3631;42.152;24.756;2023-01-29T00:31:07;99548.59;;;4.98;96.69
7180;BME280;3631;42.152;24.756;2023-01-29T00:33:34;99552.91;;;4.93;96.33
7180;BME280;3631;42.152;24.756;2023-01-29T00:36:02;99557.22;;;4.88;97.04
7180;BME280;3631;42.152;24.756;2023-01-29T00:38:31;99562.34;;;4.91;96.80
7180;BME280;3631;42.152;24.756;2023-01-29T00:41:04;99557.22;;;4.91;96.47
7180;BME280;3631;42.152;24.756;2023-01-29T00:43:49;99564.88;;;4.97;96.70
7180;BME280;3631;42.152;24.756;2023-01-29T00:46:33;99562.38;;;4.88;96.59
7180;BME280;3631;42.152;24.756;2023-01-29T00:49:00;99550.41;;;4.81;97.74
7180;BME280;3631;42.152;24.756;2023-01-29T00:51:27;99557.28;;;4.78;97.25
7180;BME280;3631;42.152;24.756;2023-01-29T00:53:56;99555.56;;;4.75;97.67
7180;BME280;3631;42.152;24.756;2023-01-29T00:56:23;99558.13;;;4.75;97.85
7180;BME280;3631;42.152;24.756;2023-01-29T00:58:50;99563.28;;;4.78;97.99
7180;BME280;3631;42.152;24.756;2023-01-29T01:01:17;99556.47;;;4.72;97.89
7180;BME280;3631;42.152;24.756;2023-01-29T01:04:04;99557.31;;;4.71;98.57
7180;BME280;3631;42.152;24.756;2023-01-29T01:06:30;99553.03;;;4.73;98.18
7180;BME280;3631;42.152;24.756;2023-01-29T01:08:59;99565.88;;;4.72;98.91
7180;BME280;3631;42.152;24.756;2023-01-29T01:11:43;99552.13;;;4.76;98.22
7180;BME280;3631;42.152;24.756;2023-01-29T01:14:10;99547.84;;;4.83;97.93
7180;BME280;3631;42.152;24.756;2023-01-29T01:16:36;99559.00;;;4.80;97.51
7180;BME280;3631;42.152;24.756;2023-01-29T01:19:03;99555.59;;;4.73;97.84
7180;BME280;3631;42.152;24.756;2023-01-29T01:21:31;99559.91;;;4.68;97.60
7180;BME280;3631;42.152;24.756;2023-01-29T01:24:00;99559.00;;;4.75;97.51
7180;BME280;3631;42.152;24.756;2023-01-29T01:26:30;99566.69;;;4.80;97.83
7180;BME280;3631;42.152;24.756;2023-01-29T01:28:57;99567.56;;;4.76;98.09
7180;BME280;3631;42.152;24.756;2023-01-29T01:31:24;99559.84;;;4.78;97.86
7180;BME280;3631;42.152;24.756;2023-01-29T01:33:50;99562.47;;;4.67;98.21
7180;BME280;3631;42.152;24.756;2023-01-29T01:36:18;99565.03;;;4.67;98.19
7180;BME280;3631;42.152;24.756;2023-01-29T01:38:45;99571.91;;;4.69;97.93
7180;BME280;3631;42.152;24.756;2023-01-29T01:41:17;99566.75;;;4.71;98.41
7180;BME280;3631;42.152;24.756;2023-01-29T01:43:49;99571.88;;;4.71;98.78
7180;BME280;3631;42.152;24.756;2023-01-29T01:46:16;99565.88;;;4.72;98.32
7180;BME280;3631;42.152;24.756;2023-01-29T01:48:45;99555.59;;;4.70;98.79
7180;BME280;3631;42.152;24.756;2023-01-29T01:51:15;99553.03;;;4.69;98.79
7180;BME280;3631;42.152;24.756;2023-01-29T01:53:44;99559.91;;;4.64;98.54
7180;BME280;3631;42.152;24.756;2023-01-29T01:56:18;99566.78;;;4.57;98.97
7180;BME280;3631;42.152;24.756;2023-01-29T01:58:50;99568.47;;;4.66;99.12
7180;BME280;3631;42.152;24.756;2023-01-29T02:01:19;99566.72;;;4.74;98.70
7180;BME280;3631;42.152;24.756;2023-01-29T02:03:55;99568.47;;;4.66;98.27
7180;BME280;3631;42.152;24.756;2023-01-29T02:06:40;99563.38;;;4.55;99.22
7180;BME280;3631;42.152;24.756;2023-01-29T02:09:30;99571.97;;;4.51;99.23
7180;BME280;3631;42.152;24.756;2023-01-29T02:12:02;99569.38;;;4.57;98.88
7180;BME280;3631;42.152;24.756;2023-01-29T02:14:30;99562.50;;;4.59;99.74
7180;BME280;3631;42.152;24.756;2023-01-29T02:16:59;99571.94;;;4.62;98.78
7180;BME280;3631;42.152;24.756;2023-01-29T02:19:35;99577.03;;;4.63;98.83
7180;BME280;3631;42.152;24.756;2023-01-29T02:22:31;99582.16;;;4.72;99.14
7180;BME280;3631;42.152;24.756;2023-01-29T02:28:18;99581.28;;;4.75;97.99
7180;BME280;3631;42.152;24.756;2023-01-29T02:30:55;99589.84;;;4.80;98.35
7180;BME280;3631;42.152;24.756;2023-01-29T02:33:33;99587.28;;;4.79;97.96
7180;BME280;3631;42.152;24.756;2023-01-29T02:36:11;99594.13;;;4.84;98.34
7180;BME280;3631;42.152;24.756;2023-01-29T02:38:45;99597.50;;;4.95;97.64
7180;BME280;3631;42.152;24.756;2023-01-29T02:41:22;99594.06;;;4.90;97.52
7180;BME280;3631;42.152;24.756;2023-01-29T02:43:54;99597.50;;;4.86;97.96
7180;BME280;3631;42.152;24.756;2023-01-29T02:46:31;99598.41;;;4.85;98.18
7180;BME280;3631;42.152;24.756;2023-01-29T02:49:07;99600.13;;;4.80;98.57
7180;BME280;3631;42.152;24.756;2023-01-29T02:51:39;99595.84;;;4.84;98.61
7180;BME280;3631;42.152;24.756;2023-01-29T02:54:13;99594.97;;;4.82;99.27
7180;BME280;3631;42.152;24.756;2023-01-29T02:56:48;99600.94;;;4.88;99.00
7180;BME280;3631;42.152;24.756;2023-01-29T02:59:21;99600.13;;;4.83;100.00
7180;BME280;3631;42.152;24.756;2023-01-29T03:01:52;99594.13;;;4.78;100.00
7180;BME280;3631;42.152;24.756;2023-01-29T03:04:24;99594.97;;;4.80;100.00
7180;BME280;3631;42.152;24.756;2023-01-29T03:06:55;99609.50;;;4.86;100.00
7180;BME280;3631;42.152;24.756;2023-01-29T03:09:27;99600.97;;;4.81;100.00
7180;BME280;3631;42.152;24.756;2023-01-29T03:12:03;99608.69;;;4.81;100.00
7180;BME280;3631;42.152;24.756;2023-01-29T03:14:46;99601.03;;;4.64;100.00
7180;BME280;3631;42.152;24.756;2023-01-29T03:17:36;99613.03;;;4.68;100.00
7180;BME280;3631;42.152;24.756;2023-01-29T03:20:08;99604.47;;;4.66;100.00
7180;BME280;3631;42.152;24.756;2023-01-29T03:22:38;99612.16;;;4.72;100.00
7180;BME280;3631;42.152;24.756;2023-01-29T03:25:07;99619.84;;;4.78;100.00
7180;BME280;3631;42.152;24.756;2023-01-29T03:27:55;99619.84;;;4.81;100.00
7180;BME280;3631;42.152;24.756;2023-01-29T03:30:45;99618.13;;;4.83;100.00
7180;BME280;3631;42.152;24.756;2023-01-29T03:33:32;99623.22;;;4.86;100.00
7180;BME280;3631;42.152;24.756;2023-01-29T03:36:06;99630.13;;;4.81;99.78
7180;BME280;3631;42.152;24.756;2023-01-29T03:38:34;99626.75;;;4.70;99.92
7180;BME280;3631;42.152;24.756;2023-01-29T03:41:04;99630.97;;;4.79;99.80
7180;BME280;3631;42.152;24.756;2023-01-29T03:43:37;99630.16;;;4.70;99.98
7180;BME280;3631;42.152;24.756;2023-01-29T03:46:10;99631.88;;;4.73;100.00
7180;BME280;3631;42.152;24.756;2023-01-29T03:48:50;99629.31;;;4.73;100.00
7180;BME280;3631;42.152;24.756;2023-01-29T03:51:24;99627.56;;;4.80;100.00
7180;BME280;3631;42.152;24.756;2023-01-29T03:53:57;99632.72;;;4.73;100.00
7180;BME280;3631;42.152;24.756;2023-01-29T03:56:38;99634.44;;;4.68;100.00
7180;BME280;3631;42.152;24.756;2023-01-29T03:59:22;99637.03;;;4.67;100.00
7180;BME280;3631;42.152;24.756;2023-01-29T04:01:58;99635.31;;;4.66;100.00
7180;BME280;3631;42.152;24.756;2023-01-29T04:04:28;99638.78;;;4.59;100.00
7180;BME280;3631;42.152;24.756;2023-01-29T04:07:00;99645.63;;;4.57;100.00
7180;BME280;3631;42.152;24.756;2023-01-29T04:09:33;99643.94;;;4.50;100.00
7180;BME280;3631;42.152;24.756;2023-01-29T04:12:05;99648.19;;;4.54;100.00
7180;BME280;3631;42.152;24.756;2023-01-29T04:14:35;99658.50;;;4.49;100.00
7180;BME280;3631;42.152;24.756;2023-01-29T04:17:08;99660.22;;;4.41;100.00
7180;BME280;3631;42.152;24.756;2023-01-29T04:19:38;99664.50;;;4.44;100.00
7180;BME280;3631;42.152;24.756;2023-01-29T04:22:09;99653.38;;;4.48;100.00
7180;BME280;3631;42.152;24.756;2023-01-29T04:24:39;99667.06;;;4.47;100.00
7180;BME280;3631;42.152;24.756;2023-01-29T04:27:18;99670.47;;;4.53;100.00
7180;BME280;3631;42.152;24.756;2023-01-29T04:29:56;99667.03;;;4.59;100.00
7180;BME280;3631;42.152;24.756;2023-01-29T04:32:31;99678.19;;;4.61;100.00
7180;BME280;3631;42.152;24.756;2023-01-29T04:35:09;99667.91;;;4.58;100.00
7180;BME280;3631;42.152;24.756;2023-01-29T04:37:48;99679.06;;;4.48;100.00
7180;BME280;3631;42.152;24.756;2023-01-29T04:40:24;99676.50;;;4.45;100.00
7180;BME280;3631;42.152;24.756;2023-01-29T04:43:01;99681.63;;;4.48;100.00
7180;BME280;3631;42.152;24.756;2023-01-29T04:45:37;99679.94;;;4.50;100.00
7180;BME280;3631;42.152;24.756;2023-01-29T04:48:14;99679.03;;;4.52;100.00
7180;BME280;3631;42.152;24.756;2023-01-29T04:50:46;99677.34;;;4.47;100.00
7180;BME280;3631;42.152;24.756;2023-01-29T04:53:17;99683.31;;;4.52;100.00
7180;BME280;3631;42.152;24.756;2023-01-29T04:55:52;99686.78;;;4.48;100.00
7180;BME280;3631;42.152;24.756;2023-01-29T04:58:25;99689.34;;;4.45;100.00
7180;BME280;3631;42.152;24.756;2023-01-29T05:00:56;99685.94;;;4.38;100.00
7180;BME280;3631;42.152;24.756;2023-01-29T05:03:28;99684.22;;;4.29;100.00
7180;BME280;3631;42.152;24.756;2023-01-29T05:05:57;99687.66;;;4.27;100.00
7180;BME280;3631;42.152;24.756;2023-01-29T05:08:28;99683.38;;;4.35;100.00
7180;BME280;3631;42.152;24.756;2023-01-29T05:10:58;99694.50;;;4.28;100.00
7180;BME280;3631;42.152;24.756;2023-01-29T05:13:28;99690.22;;;4.25;100.00
7180;BME280;3631;42.152;24.756;2023-01-29T05:16:01;99697.06;;;4.29;100.00
7180;BME280;3631;42.152;24.756;2023-01-29T05:18:32;99689.34;;;4.20;100.00
7180;BME280;3631;42.152;24.756;2023-01-29T05:21:01;99695.34;;;4.22;100.00
7180;BME280;3631;42.152;24.756;2023-01-29T05:23:30;99691.94;;;4.16;100.00
7180;BME280;3631;42.152;24.756;2023-01-29T05:25:57;99691.94;;;4.20;100.00
7180;BME280;3631;42.152;24.756;2023-01-29T05:28:27;99696.19;;;4.18;100.00
7180;BME280;3631;42.152;24.756;2023-01-29T05:30:54;99709.91;;;4.29;100.00
7180;BME280;3631;42.152;24.756;2023-01-29T05:33:24;99703.91;;;4.30;100.00
7180;BME280;3631;42.152;24.756;2023-01-29T05:35:53;99704.78;;;4.25;100.00
7180;BME280;3631;42.152;24.756;2023-01-29T05:38:21;99709.06;;;4.26;100.00
7180;BME280;3631;42.152;24.756;2023-01-29T05:40:48;99714.19;;;4.24;100.00
7180;BME280;3631;42.152;24.756;2023-01-29T05:43:17;99713.34;;;4.31;100.00
7180;BME280;3631;42.152;24.756;2023-01-29T05:45:51;99711.66;;;4.27;100.00
7180;BME280;3631;42.152;24.756;2023-01-29T05:48:18;99712.47;;;4.32;100.00
7180;BME280;3631;42.152;24.756;2023-01-29T05:50:45;99715.03;;;4.32;100.00
7180;BME280;3631;42.152;24.756;2023-01-29T05:53:13;99721.03;;;4.47;100.00
7180;BME280;3631;42.152;24.756;2023-01-29T05:55:42;99729.59;;;4.59;100.00
7180;BME280;3631;42.152;24.756;2023-01-29T05:58:09;99728.75;;;4.60;100.00
7180;BME280;3631;42.152;24.756;2023-01-29T06:00:36;99730.44;;;4.58;100.00
7180;BME280;3631;42.152;24.756;2023-01-29T06:03:04;99738.16;;;4.54;100.00
7180;BME280;3631;42.152;24.756;2023-01-29T06:05:31;99736.44;;;4.56;100.00
7180;BME280;3631;42.152;24.756;2023-01-29T06:07:58;99737.31;;;4.59;100.00
7180;BME280;3631;42.152;24.756;2023-01-29T06:10:26;99745.88;;;4.61;100.00
7180;BME280;3631;42.152;24.756;2023-01-29T06:12:53;99745.03;;;4.61;100.00
7180;BME280;3631;42.152;24.756;2023-01-29T06:15:20;99743.28;;;4.64;100.00
7180;BME280;3631;42.152;24.756;2023-01-29T06:17:46;99732.16;;;4.53;100.00
7180;BME280;3631;42.152;24.756;2023-01-29T06:20:13;99757.03;;;4.59;100.00
7180;BME280;3631;42.152;24.756;2023-01-29T06:22:40;99750.16;;;4.55;100.00
7180;BME280;3631;42.152;24.756;2023-01-29T06:25:08;99754.44;;;4.62;100.00
7180;BME280;3631;42.152;24.756;2023-01-29T06:27:36;99749.31;;;4.62;100.00
7180;BME280;3631;42.152;24.756;2023-01-29T06:30:04;99762.16;;;4.56;100.00
7180;BME280;3631;42.152;24.756;2023-01-29T06:32:31;99764.72;;;4.47;100.00
7180;BME280;3631;42.152;24.756;2023-01-29T06:34:58;99769.88;;;4.56;100.00
7180;BME280;3631;42.152;24.756;2023-01-29T06:37:25;99771.56;;;4.66;100.00
7180;BME280;3631;42.152;24.756;2023-01-29T06:39:52;99769.84;;;4.68;100.00
7180;BME280;3631;42.152;24.756;2023-01-29T06:42:19;99763.84;;;4.78;100.00
7180;BME280;3631;42.152;24.756;2023-01-29T06:44:53;99777.56;;;4.72;100.00
7180;BME280;3631;42.152;24.756;2023-01-29T06:47:20;99779.28;;;4.81;100.00
7180;BME280;3631;42.152;24.756;2023-01-29T06:49:47;99779.25;;;4.95;100.00
7180;BME280;3631;42.152;24.756;2023-01-29T06:52:14;99781.81;;;4.87;100.00
7180;BME280;3631;42.152;24.756;2023-01-29T06:54:41;99781.81;;;4.93;100.00
7180;BME280;3631;42.152;24.756;2023-01-29T06:57:08;99783.53;;;4.94;100.00
7180;BME280;3631;42.152;24.756;2023-01-29T06:59:35;99787.81;;;4.92;100.00
7180;BME280;3631;42.152;24.756;2023-01-29T07:02:03;99787.84;;;4.95;100.00
7180;BME280;3631;42.152;24.756;2023-01-29T07:04:33;99798.09;;;5.07;100.00
7180;BME280;3631;42.152;24.756;2023-01-29T07:07:02;99796.34;;;5.14;100.00
7180;BME280;3631;42.152;24.756;2023-01-29T07:09:29;99794.63;;;5.15;100.00
7180;BME280;3631;42.152;24.756;2023-01-29T07:11:56;99773.19;;;5.08;100.00
7180;BME280;3631;42.152;24.756;2023-01-29T07:14:23;99792.00;;;5.33;100.00
7180;BME280;3631;42.152;24.756;2023-01-29T07:16:50;99804.00;;;5.35;100.00
7180;BME280;3631;42.152;24.756;2023-01-29T07:19:18;99808.31;;;5.33;100.00
7180;BME280;3631;42.152;24.756;2023-01-29T07:21:45;99810.00;;;5.39;100.00
7180;BME280;3631;42.152;24.756;2023-01-29T07:24:12;99815.19;;;5.30;100.00
7180;BME280;3631;42.152;24.756;2023-01-29T07:26:39;99806.63;;;5.28;100.00
7180;BME280;3631;42.152;24.756;2023-01-29T07:29:05;99810.84;;;5.47;100.00
7180;BME280;3631;42.152;24.756;2023-01-29T07:31:32;99801.34;;;5.55;100.00
7180;BME280;3631;42.152;24.756;2023-01-29T07:33:59;99807.41;;;5.53;100.00
7180;BME280;3631;42.152;24.756;2023-01-29T07:36:28;99811.59;;;5.70;100.00
7180;BME280;3631;42.152;24.756;2023-01-29T07:38:55;99798.72;;;5.73;100.00
7180;BME280;3631;42.152;24.756;2023-01-29T07:41:22;99810.69;;;5.85;100.00
7180;BME280;3631;42.152;24.756;2023-01-29T07:43:49;99808.88;;;6.02;100.00
7180;BME280;3631;42.152;24.756;2023-01-29T07:46:16;99807.22;;;5.94;100.00
7180;BME280;3631;42.152;24.756;2023-01-29T07:48:42;99813.97;;;6.13;99.93
7180;BME280;3631;42.152;24.756;2023-01-29T07:51:09;99807.88;;;6.29;98.74
7180;BME280;3631;42.152;24.756;2023-01-29T07:53:38;99817.19;;;6.47;98.64
7180;BME280;3631;42.152;24.756;2023-01-29T07:56:05;99817.09;;;6.57;98.13
7180;BME280;3631;42.152;24.756;2023-01-29T07:58:32;99823.13;;;6.55;97.00
7180;BME280;3631;42.152;24.756;2023-01-29T08:00:59;99823.09;;;6.61;97.92
7180;BME280;3631;42.152;24.756;2023-01-29T08:03:26;99831.69;;;6.62;97.33
7180;BME280;3631;42.152;24.756;2023-01-29T08:05:53;99829.13;;;6.59;98.33
7180;BME280;3631;42.152;24.756;2023-01-29T08:08:19;99833.44;;;6.60;98.28
7180;BME280;3631;42.152;24.756;2023-01-29T08:10:48;99836.75;;;6.74;98.40
7180;BME280;3631;42.152;24.756;2023-01-29T08:13:15;99840.19;;;6.73;98.09
7180;BME280;3631;42.152;24.756;2023-01-29T08:15:42;99844.53;;;6.69;98.28
7180;BME280;3631;42.152;24.756;2023-01-29T08:18:10;99847.97;;;6.67;98.34
7180;BME280;3631;42.152;24.756;2023-01-29T08:20:37;99842.09;;;6.52;100.00
7180;BME280;3631;42.152;24.756;2023-01-29T08:23:06;99833.50;;;6.50;100.00
7180;BME280;3631;42.152;24.756;2023-01-29T08:25:34;99841.22;;;6.53;98.92
7180;BME280;3631;42.152;24.756;2023-01-29T08:28:03;99836.03;;;6.56;100.00
7180;BME280;3631;42.152;24.756;2023-01-29T08:30:31;99846.13;;;6.85;99.83
7180;BME280;3631;42.152;24.756;2023-01-29T08:32:59;99844.31;;;6.93;99.32
7180;BME280;3631;42.152;24.756;2023-01-29T08:35:26;99840.13;;;6.79;100.00
7180;BME280;3631;42.152;24.756;2023-01-29T08:37:53;99847.84;;;6.83;99.61
7180;BME280;3631;42.152;24.756;2023-01-29T08:40:20;99842.59;;;6.97;98.84
7180;BME280;3631;42.152;24.756;2023-01-29T08:42:48;99855.47;;;6.97;98.18
7180;BME280;3631;42.152;24.756;2023-01-29T08:45:16;99857.31;;;6.84;98.47
7180;BME280;3631;42.152;24.756;2023-01-29T08:47:46;99843.72;;;6.66;99.95
7180;BME280;3631;42.152;24.756;2023-01-29T08:50:13;99863.50;;;6.64;100.00
7180;BME280;3631;42.152;24.756;2023-01-29T08:52:40;99849.84;;;6.49;100.00
7180;BME280;3631;42.152;24.756;2023-01-29T08:55:07;99855.84;;;6.54;100.00
7180;BME280;3631;42.152;24.756;2023-01-29T08:57:34;99860.94;;;6.57;100.00
7180;BME280;3631;42.152;24.756;2023-01-29T09:00:02;99853.91;;;6.78;100.00
7180;BME280;3631;42.152;24.756;2023-01-29T09:02:31;99862.44;;;6.87;100.00
7180;BME280;3631;42.152;24.756;2023-01-29T09:04:58;99858.91;;;6.98;99.09
7180;BME280;3631;42.152;24.756;2023-01-29T09:07:24;99856.19;;;7.11;98.83
7180;BME280;3631;42.152;24.756;2023-01-29T09:09:51;99855.09;;;7.37;98.50
7180;BME280;3631;42.152;24.756;2023-01-29T09:12:19;99846.47;;;7.38;97.97
7180;BME280;3631;42.152;24.756;2023-01-29T09:14:46;99858.59;;;7.29;98.04
7180;BME280;3631;42.152;24.756;2023-01-29T09:17:13;99843.44;;;6.99;99.59
7180;BME280;3631;42.152;24.756;2023-01-29T09:19:41;99852.03;;;6.98;99.40
7180;BME280;3631;42.152;24.756;2023-01-29T09:22:09;99851.22;;;6.88;100.00
7180;BME280;3631;42.152;24.756;2023-01-29T09:24:36;99835.91;;;6.75;100.00
7180;BME280;3631;42.152;24.756;2023-01-29T09:27:03;99853.78;;;6.96;100.00
7180;BME280;3631;42.152;24.756;2023-01-29T09:29:30;99852.06;;;6.90;100.00
7180;BME280;3631;42.152;24.756;2023-01-29T09:31:57;99855.50;;;6.96;100.00
7180;BME280;3631;42.152;24.756;2023-01-29T09:34:24;99848.53;;;7.02;100.00
7180;BME280;3631;42.152;24.756;2023-01-29T09:36:52;99845.94;;;7.05;100.00
7180;BME280;3631;42.152;24.756;2023-01-29T09:39:19;99845.97;;;7.01;100.00
7180;BME280;3631;42.152;24.756;2023-01-29T09:41:52;99847.66;;;7.03;100.00
7180;BME280;3631;42.152;24.756;2023-01-29T09:44:27;99837.31;;;7.06;100.00
7180;BME280;3631;42.152;24.756;2023-01-29T09:47:01;99845.09;;;7.02;100.00
7180;BME280;3631;42.152;24.756;2023-01-29T09:49:34;99837.41;;;6.97;100.00
7180;BME280;3631;42.152;24.756;2023-01-29T09:52:12;99841.84;;;6.83;100.00
7180;BME280;3631;42.152;24.756;2023-01-29T09:54:49;99835.91;;;6.75;100.00
7180;BME280;3631;42.152;24.756;2023-01-29T09:57:22;99829.88;;;6.76;100.00
7180;BME280;3631;42.152;24.756;2023-01-29T09:59:50;99829.16;;;6.55;100.00
7180;BME280;3631;42.152;24.756;2023-01-29T10:02:30;99830.84;;;6.58;100.00
7180;BME280;3631;42.152;24.756;2023-01-29T10:05:24;99821.47;;;6.52;100.00
7180;BME280;3631;42.152;24.756;2023-01-29T10:08:19;99830.78;;;6.67;100.00
7180;BME280;3631;42.152;24.756;2023-01-29T10:10:50;99823.97;;;6.60;100.00
7180;BME280;3631;42.152;24.756;2023-01-29T10:13:29;99821.38;;;6.62;100.00
7180;BME280;3631;42.152;24.756;2023-01-29T10:16:16;99821.41;;;6.59;100.00
7180;BME280;3631;42.152;24.756;2023-01-29T10:19:00;99816.22;;;6.62;100.00
7180;BME280;3631;42.152;24.756;2023-01-29T10:21:43;99812.69;;;6.72;100.00
7180;BME280;3631;42.152;24.756;2023-01-29T10:24:23;99803.34;;;6.59;100.00
7180;BME280;3631;42.152;24.756;2023-01-29T10:26:52;99804.97;;;6.69;100.00
7180;BME280;3631;42.152;24.756;2023-01-29T10:29:19;99802.25;;;6.87;100.00
7180;BME280;3631;42.152;24.756;2023-01-29T10:31:49;99791.88;;;6.90;100.00
7180;BME280;3631;42.152;24.756;2023-01-29T10:34:24;99795.28;;;6.95;100.00
7180;BME280;3631;42.152;24.756;2023-01-29T10:36:54;99788.31;;;7.03;100.00
7180;BME280;3631;42.152;24.756;2023-01-29T10:39:24;99788.19;;;7.15;99.98
7180;BME280;3631;42.152;24.756;2023-01-29T10:44:56;99788.91;;;7.28;97.62
7180;BME280;3631;42.152;24.756;2023-01-29T10:50:25;99768.22;;;7.31;96.73
7180;BME280;3631;42.152;24.756;2023-01-29T10:53:13;99775.69;;;7.54;96.56
7180;BME280;3631;42.152;24.756;2023-01-29T10:55:52;99775.63;;;7.58;96.08
7180;BME280;3631;42.152;24.756;2023-01-29T10:58:29;99772.16;;;7.61;95.58
7180;BME280;3631;42.152;24.756;2023-01-29T11:00:59;99761.84;;;7.58;94.34
7180;BME280;3631;42.152;24.756;2023-01-29T11:03:27;99768.81;;;7.54;94.86
7180;BME280;3631;42.152;24.756;2023-01-29T11:06:00;99762.47;;;7.78;93.83
7180;BME280;3631;42.152;24.756;2023-01-29T11:08:33;99761.47;;;7.88;93.07
7180;BME280;3631;42.152;24.756;2023-01-29T11:11:06;99763.28;;;7.80;93.36
7180;BME280;3631;42.152;24.756;2023-01-29T11:13:37;99758.13;;;7.80;93.27
7180;BME280;3631;42.152;24.756;2023-01-29T11:16:08;99765.94;;;7.76;92.56
7180;BME280;3631;42.152;24.756;2023-01-29T11:18:53;99762.38;;;7.83;92.51
7180;BME280;3631;42.152;24.756;2023-01-29T11:21:21;99764.19;;;7.78;92.48
7180;BME280;3631;42.152;24.756;2023-01-29T11:23:49;99752.91;;;7.83;92.13
7180;BME280;3631;42.152;24.756;2023-01-29T11:26:19;99754.63;;;7.84;92.36
7180;BME280;3631;42.152;24.756;2023-01-29T11:28:49;99751.22;;;7.79;91.46
7180;BME280;3631;42.152;24.756;2023-01-29T11:31:19;99746.28;;;7.65;92.69
7180;BME280;3631;42.152;24.756;2023-01-29T11:33:47;99744.63;;;7.60;93.17
7180;BME280;3631;42.152;24.756;2023-01-29T11:36:29;99735.25;;;7.53;92.72
7180;BME280;3631;42.152;24.756;2023-01-29T11:39:14;99732.72;;;7.48;93.31
7180;BME280;3631;42.152;24.756;2023-01-29T11:41:47;99727.50;;;7.51;93.71
7180;BME280;3631;42.152;24.756;2023-01-29T11:44:19;99729.22;;;7.52;93.30
7180;BME280;3631;42.152;24.756;2023-01-29T11:46:46;99725.81;;;7.49;92.90
7180;BME280;3631;42.152;24.756;2023-01-29T11:49:22;99727.41;;;7.57;92.94
7180;BME280;3631;42.152;24.756;2023-01-29T11:51:53;99719.63;;;7.60;92.52
7180;BME280;3631;42.152;24.756;2023-01-29T11:54:24;99721.59;;;7.45;92.63
7180;BME280;3631;42.152;24.756;2023-01-29T11:56:56;99721.59;;;7.43;93.37
7180;BME280;3631;42.152;24.756;2023-01-29T11:59:37;99711.16;;;7.51;92.56
7180;BME280;3631;42.152;24.756;2023-01-29T12:02:23;99710.34;;;7.46;92.85
7180;BME280;3631;42.152;24.756;2023-01-29T12:04:53;99714.59;;;7.53;92.35
7180;BME280;3631;42.152;24.756;2023-01-29T12:07:21;99710.22;;;7.56;92.18
7180;BME280;3631;42.152;24.756;2023-01-29T12:09:51;99710.78;;;7.78;91.26
7180;BME280;3631;42.152;24.756;2023-01-29T12:12:36;99688.50;;;7.71;90.57
7180;BME280;3631;42.152;24.756;2023-01-29T12:15:20;99701.34;;;7.77;89.86
7180;BME280;3631;42.152;24.756;2023-01-29T12:18:03;99690.16;;;7.77;90.43
7180;BME280;3631;42.152;24.756;2023-01-29T12:20:35;99697.56;;;7.99;89.32
7180;BME280;3631;42.152;24.756;2023-01-29T12:23:16;99694.09;;;8.00;88.52
7180;BME280;3631;42.152;24.756;2023-01-29T12:25:49;99693.34;;;7.91;88.49
7180;BME280;3631;42.152;24.756;2023-01-29T12:28:32;99681.41;;;7.85;88.54
7180;BME280;3631;42.152;24.756;2023-01-29T12:31:10;99690.78;;;7.91;88.52
7180;BME280;3631;42.152;24.756;2023-01-29T12:33:47;99684.00;;;7.84;88.54
7180;BME280;3631;42.152;24.756;2023-01-29T12:36:22;99685.69;;;7.86;88.18
7180;BME280;3631;42.152;24.756;2023-01-29T12:38:50;99686.53;;;7.88;88.55
7180;BME280;3631;42.152;24.756;2023-01-29T12:41:27;99676.25;;;7.84;87.75
7180;BME280;3631;42.152;24.756;2023-01-29T12:44:00;99680.34;;;7.97;88.38
7180;BME280;3631;42.152;24.756;2023-01-29T12:46:33;99681.25;;;7.94;87.50
7180;BME280;3631;42.152;24.756;2023-01-29T12:49:08;99683.81;;;7.96;88.06
7180;BME280;3631;42.152;24.756;2023-01-29T12:51:41;99688.25;;;7.89;87.67
7180;BME280;3631;42.152;24.756;2023-01-29T12:54:14;99682.22;;;7.87;88.19
7180;BME280;3631;42.152;24.756;2023-01-29T12:56:47;99688.41;;;7.77;87.70
7180;BME280;3631;42.152;24.756;2023-01-29T12:59:20;99686.63;;;7.81;87.87
7180;BME280;3631;42.152;24.756;2023-01-29T13:01:53;99689.09;;;7.88;87.86
7180;BME280;3631;42.152;24.756;2023-01-29T13:04:29;99683.97;;;7.87;86.72
7180;BME280;3631;42.152;24.756;2023-01-29T13:07:05;99687.28;;;7.95;87.33
7180;BME280;3631;42.152;24.756;2023-01-29T13:09:36;99684.84;;;7.84;87.83
7180;BME280;3631;42.152;24.756;2023-01-29T13:12:11;99689.97;;;7.89;87.30
7180;BME280;3631;42.152;24.756;2023-01-29T13:14:43;99683.00;;;7.92;87.59
7180;BME280;3631;42.152;24.756;2023-01-29T13:17:15;99681.25;;;7.94;87.34
7180;BME280;3631;42.152;24.756;2023-01-29T13:19:46;99688.91;;;8.00;87.12
7180;BME280;3631;42.152;24.756;2023-01-29T13:22:20;99672.97;;;7.71;86.74
7180;BME280;3631;42.152;24.756;2023-01-29T13:24:49;99669.44;;;7.78;86.89
7180;BME280;3631;42.152;24.756;2023-01-29T13:27:22;99668.63;;;7.75;86.05
7180;BME280;3631;42.152;24.756;2023-01-29T13:29:53;99685.03;;;7.72;86.75
7180;BME280;3631;42.152;24.756;2023-01-29T13:32:23;99681.38;;;7.87;86.26
7180;BME280;3631;42.152;24.756;2023-01-29T13:34:53;99685.66;;;7.89;86.60
7180;BME280;3631;42.152;24.756;2023-01-29T13:37:26;99686.56;;;7.85;85.68
7180;BME280;3631;42.152;24.756;2023-01-29T13:39:57;99683.19;;;7.80;85.07
7180;BME280;3631;42.152;24.756;2023-01-29T13:42:38;99687.44;;;7.84;84.91
7180;BME280;3631;42.152;24.756;2023-01-29T13:45:16;99685.59;;;7.92;84.61
7180;BME280;3631;42.152;24.756;2023-01-29T13:47:44;99684.72;;;7.92;84.67
7180;BME280;3631;42.152;24.756;2023-01-29T13:50:18;99686.59;;;7.84;84.24